createdAt,value
2019-03-17T00:00:52.098Z,9.01
2019-03-17T00:01:26.415Z,8.91
2019-03-17T00:02:55.982Z,8.93
2019-03-17T00:03:30.615Z,8.88
2019-03-17T00:06:08.704Z,8.94
2019-03-17T00:07:04.163Z,8.91
2019-03-17T00:11:29.360Z,8.86
2019-03-17T00:12:16.220Z,8.78
2019-03-17T00:13:21.807Z,8.84
2019-03-17T00:17:33.076Z,8.87
2019-03-17T00:18:12.178Z,8.75
2019-03-17T00:19:46.495Z,8.83
2019-03-17T00:23:31.956Z,8.79
2019-03-17T00:24:40.528Z,8.60
2019-03-17T00:25:48.972Z,8.72
2019-03-17T00:28:25.888Z,8.60
2019-03-17T00:28:48.869Z,8.63
2019-03-17T00:29:49.895Z,8.51
2019-03-17T00:37:22.089Z,8.58
2019-03-17T00:38:27.762Z,8.57
2019-03-17T00:39:27.565Z,8.53
2019-03-17T00:40:05.404Z,8.53
2019-03-17T00:41:32.508Z,8.54
2019-03-17T00:42:12.608Z,8.47
2019-03-17T00:43:05.993Z,8.45
2019-03-17T00:45:44.665Z,8.48
2019-03-17T00:46:50.537Z,8.40
2019-03-17T00:47:47.054Z,8.47
2019-03-17T00:49:04.127Z,8.42
2019-03-17T00:52:53.483Z,8.26
2019-03-17T00:55:57.453Z,8.29
2019-03-17T00:58:17.028Z,8.32
2019-03-17T00:58:52.482Z,8.29
2019-03-17T01:01:43.074Z,8.25
2019-03-17T01:15:38.278Z,8.02
2019-03-17T01:16:23.248Z,8.17
2019-03-17T01:20:51.361Z,8.15
2019-03-17T01:21:21.007Z,8.08
2019-03-17T01:22:43.631Z,8.08
2019-03-17T01:34:28.944Z,7.97
2019-03-17T01:40:37.826Z,7.96
2019-03-17T01:45:42.913Z,7.93
2019-03-17T01:48:29.468Z,7.94
2019-03-17T01:50:38.157Z,7.94
2019-03-17T01:51:54.689Z,7.92
2019-03-17T01:54:29.040Z,8.00
2019-03-17T01:55:20.204Z,7.82
2019-03-17T01:57:42.154Z,7.93
2019-03-17T01:58:48.903Z,7.97
2019-03-17T01:59:41.436Z,8.02
2019-03-17T02:00:39.972Z,8.00
2019-03-17T02:01:39.428Z,8.03
2019-03-17T02:03:01.933Z,8.04
2019-03-17T02:03:58.308Z,8.11
2019-03-17T02:04:40.946Z,8.11
2019-03-17T02:05:39.450Z,8.11
2019-03-17T02:06:43.467Z,8.20
2019-03-17T02:07:38.422Z,8.11
2019-03-17T02:09:14.932Z,8.22
2019-03-17T02:09:49.166Z,8.18
2019-03-17T02:10:41.400Z,8.28
2019-03-17T02:11:40.384Z,8.32
2019-03-17T02:12:39.442Z,8.25
2019-03-17T02:13:42.498Z,8.28
2019-03-17T02:14:40.609Z,8.36
2019-03-17T02:15:54.942Z,8.37
2019-03-17T02:17:05.458Z,8.37
2019-03-17T02:17:40.746Z,8.39
2019-03-17T02:19:04.440Z,8.48
2019-03-17T02:19:41.512Z,8.45
2019-03-17T02:21:06.435Z,8.51
2019-03-17T02:21:40.256Z,8.47
2019-03-17T02:22:42.530Z,8.57
2019-03-17T02:23:56.441Z,8.54
2019-03-17T02:24:40.938Z,8.53
2019-03-17T02:26:02.803Z,8.58
2019-03-17T02:28:18.837Z,8.69
2019-03-17T02:29:18.043Z,8.66
2019-03-17T02:30:24.883Z,8.73
2019-03-17T02:31:15.378Z,8.69
2019-03-17T02:32:15.283Z,8.73
2019-03-17T02:33:15.232Z,8.69
2019-03-17T02:34:17.236Z,8.73
2019-03-17T02:35:13.958Z,8.75
2019-03-17T02:36:21.777Z,8.66
2019-03-17T02:38:55.464Z,8.73
2019-03-17T02:39:47.966Z,8.88
2019-03-17T02:41:11.427Z,8.83
2019-03-17T02:41:49.656Z,8.76
2019-03-17T02:43:13.390Z,8.79
2019-03-17T02:43:48.697Z,8.84
2019-03-17T02:51:33.967Z,8.81
2019-03-17T02:52:22.619Z,8.86
2019-03-17T02:54:59.656Z,8.84
2019-03-17T02:56:14.700Z,8.79
2019-03-17T02:58:55.892Z,8.84
2019-03-17T02:59:46.944Z,8.81
2019-03-17T03:00:26.129Z,8.84
2019-03-17T03:01:51.494Z,8.87
2019-03-17T03:02:29.408Z,8.83
2019-03-17T03:07:11.307Z,8.83
2019-03-17T03:09:27.354Z,8.81
2019-03-17T03:10:34.168Z,8.79
2019-03-17T03:11:13.670Z,8.84
2019-03-17T03:12:10.507Z,8.87
2019-03-17T03:13:34.977Z,8.79
2019-03-17T03:16:08.231Z,8.87
2019-03-17T03:16:57.261Z,8.87
2019-03-17T03:17:43.211Z,8.93
2019-03-17T03:20:51.314Z,8.93
2019-03-17T03:21:14.055Z,8.94
2019-03-17T03:22:38.525Z,8.94
2019-03-17T03:23:42.528Z,8.97
2019-03-17T03:24:19.399Z,9.09
2019-03-17T03:25:38.561Z,8.97
2019-03-17T03:26:42.948Z,8.91
2019-03-17T03:27:25.277Z,8.94
2019-03-17T03:28:36.690Z,9.05
2019-03-17T03:29:19.659Z,9.05
2019-03-17T03:30:15.431Z,8.91
2019-03-17T03:31:40.085Z,8.99
2019-03-17T03:32:22.111Z,9.04
2019-03-17T03:33:14.636Z,8.96
2019-03-17T03:34:17.131Z,9.09
2019-03-17T03:35:30.591Z,9.12
2019-03-17T03:36:17.524Z,9.05
2019-03-17T03:37:17.061Z,9.05
2019-03-17T03:38:24.529Z,9.12
2019-03-17T03:39:18.531Z,9.12
2019-03-17T03:40:15.799Z,9.15
2019-03-17T03:41:17.646Z,9.10
2019-03-17T03:42:18.790Z,9.10
2019-03-17T03:45:08.120Z,9.12
2019-03-17T03:45:51.630Z,9.10
2019-03-17T03:46:51.391Z,9.24
2019-03-17T03:47:50.832Z,9.23
2019-03-17T03:48:50.447Z,9.28
2019-03-17T03:50:14.394Z,9.25
2019-03-17T03:50:50.694Z,9.23
2019-03-17T03:51:53.002Z,9.30
2019-03-17T03:52:51.116Z,9.25
2019-03-17T03:53:51.874Z,9.28
2019-03-17T03:54:50.814Z,9.32
2019-03-17T03:55:53.883Z,9.35
2019-03-17T03:58:26.717Z,9.30
2019-03-17T03:59:25.430Z,9.27
2019-03-17T04:00:25.163Z,9.34
2019-03-17T04:01:29.400Z,9.27
2019-03-17T04:02:24.355Z,9.35
2019-03-17T04:03:44.534Z,9.32
2019-03-17T04:04:56.338Z,9.35
2019-03-17T04:05:24.389Z,9.38
2019-03-17T04:06:27.434Z,9.30
2019-03-17T04:07:26.298Z,9.38
2019-03-17T04:09:00.378Z,9.38
2019-03-17T04:09:32.843Z,9.38
2019-03-17T04:10:47.349Z,9.31
2019-03-17T04:11:49.000Z,9.34
2019-03-17T04:12:27.906Z,9.35
2019-03-17T04:13:30.652Z,9.34
2019-03-17T04:14:28.640Z,9.39
2019-03-17T04:15:47.341Z,9.39
2019-03-17T04:16:26.850Z,9.40
2019-03-17T04:17:32.960Z,9.39
2019-03-17T04:18:40.853Z,9.49
2019-03-17T04:19:26.382Z,9.50
2019-03-17T04:20:28.814Z,9.48
2019-03-17T04:21:26.667Z,9.49
2019-03-17T04:22:32.294Z,9.43
2019-03-17T04:23:28.896Z,9.45
2019-03-17T04:24:59.799Z,9.46
2019-03-17T04:25:32.436Z,9.45
2019-03-17T04:26:30.545Z,9.53
2019-03-17T04:27:29.391Z,9.46
2019-03-17T04:28:28.848Z,9.49
2019-03-17T04:29:49.894Z,9.42
2019-03-17T04:30:33.215Z,9.46
2019-03-17T04:31:29.317Z,9.50
2019-03-17T04:32:31.417Z,9.61
2019-03-17T04:33:35.423Z,9.48
2019-03-17T04:34:29.897Z,9.56
2019-03-17T04:35:35.849Z,9.58
2019-03-17T04:36:39.519Z,9.49
2019-03-17T04:37:32.396Z,9.52
2019-03-17T04:38:30.349Z,9.46
2019-03-17T04:39:33.293Z,9.60
2019-03-17T04:40:44.848Z,9.52
2019-03-17T04:41:31.154Z,9.57
2019-03-17T04:42:31.802Z,9.61
2019-03-17T04:43:31.348Z,9.61
2019-03-17T04:46:14.461Z,9.67
2019-03-17T04:47:06.034Z,9.56
2019-03-17T04:48:03.833Z,9.52
2019-03-17T04:52:09.817Z,9.66
2019-03-17T04:53:13.880Z,9.66
2019-03-17T04:54:29.110Z,9.64
2019-03-17T04:56:44.237Z,9.57
2019-03-17T04:57:55.239Z,9.64
2019-03-17T04:58:41.672Z,9.67
2019-03-17T04:59:44.513Z,9.63
2019-03-17T05:00:42.681Z,9.68
2019-03-17T05:01:43.685Z,9.66
2019-03-17T05:02:42.247Z,9.60
2019-03-17T05:03:43.214Z,9.61
2019-03-17T05:06:19.452Z,9.56
2019-03-17T05:08:47.578Z,9.58
2019-03-17T05:11:22.567Z,9.58
2019-03-17T05:12:23.533Z,9.56
2019-03-17T05:13:19.172Z,9.64
2019-03-17T05:14:20.200Z,9.60
2019-03-17T05:15:23.305Z,9.58
2019-03-17T05:16:24.967Z,9.63
2019-03-17T05:17:40.526Z,9.57
2019-03-17T05:18:20.549Z,9.58
2019-03-17T05:19:22.028Z,9.60
2019-03-17T05:20:26.998Z,9.61
2019-03-17T05:21:22.016Z,9.60
2019-03-17T05:22:27.510Z,9.58
2019-03-17T05:25:14.327Z,9.60
2019-03-17T05:25:52.796Z,9.61
2019-03-17T05:26:55.797Z,9.63
2019-03-17T05:27:54.877Z,9.52
2019-03-17T05:29:15.535Z,9.60
2019-03-17T05:29:56.289Z,9.61
2019-03-17T05:30:54.302Z,9.56
2019-03-17T05:31:53.313Z,9.58
2019-03-17T05:33:17.316Z,9.58
2019-03-17T05:33:56.832Z,9.53
2019-03-17T05:34:53.354Z,9.57
2019-03-17T05:35:55.411Z,9.56
2019-03-17T05:37:06.269Z,9.66
2019-03-17T05:37:55.804Z,9.57
2019-03-17T05:39:01.061Z,9.60
2019-03-17T05:40:00.472Z,9.53
2019-03-17T05:40:53.259Z,9.57
2019-03-17T05:41:54.436Z,9.61
2019-03-17T05:42:56.071Z,9.67
2019-03-17T05:43:56.385Z,9.58
2019-03-17T05:45:03.793Z,9.66
2019-03-17T05:46:01.621Z,9.63
2019-03-17T05:46:55.274Z,9.58
2019-03-17T05:47:57.847Z,9.70
2019-03-17T05:50:33.528Z,9.67
2019-03-17T05:51:50.182Z,9.64
2019-03-17T05:54:10.165Z,9.68
2019-03-17T05:55:06.246Z,9.70
2019-03-17T05:56:05.686Z,9.66
2019-03-17T05:57:07.739Z,9.68
2019-03-17T05:58:22.215Z,9.64
2019-03-17T05:59:03.230Z,9.64
2019-03-17T06:00:03.253Z,9.70
2019-03-17T06:01:03.746Z,9.68
2019-03-17T06:03:36.672Z,9.64
2019-03-17T06:04:35.607Z,9.71
2019-03-17T06:05:32.080Z,9.71
2019-03-17T06:06:49.544Z,9.82
2019-03-17T06:07:34.329Z,9.75
2019-03-17T06:08:36.226Z,9.82
2019-03-17T06:09:35.543Z,9.76
2019-03-17T06:10:36.588Z,9.91
2019-03-17T06:11:34.871Z,9.86
2019-03-17T06:13:00.170Z,9.97
2019-03-17T06:13:34.351Z,9.89
2019-03-17T06:14:36.143Z,9.93
2019-03-17T06:15:36.568Z,9.86
2019-03-17T06:16:37.660Z,10.00
2019-03-17T06:17:37.639Z,9.97
2019-03-17T06:18:40.123Z,9.99
2019-03-17T06:19:37.540Z,10.03
2019-03-17T06:22:10.880Z,10.04
2019-03-17T06:23:07.099Z,10.21
2019-03-17T06:24:16.170Z,10.09
2019-03-17T06:25:43.663Z,10.06
2019-03-17T06:26:23.656Z,10.15
2019-03-17T06:27:08.692Z,10.19
2019-03-17T06:29:41.859Z,10.24
2019-03-17T06:30:43.426Z,10.28
2019-03-17T06:31:49.114Z,10.30
2019-03-17T06:32:41.978Z,10.24
2019-03-17T06:36:50.641Z,10.26
2019-03-17T06:37:46.240Z,10.34
2019-03-17T06:42:13.906Z,10.33
2019-03-17T06:43:14.107Z,10.33
2019-03-17T06:44:19.661Z,10.37
2019-03-17T06:44:49.982Z,10.43
2019-03-17T06:47:23.558Z,10.47
2019-03-17T06:48:25.681Z,10.55
2019-03-17T06:49:21.813Z,10.52
2019-03-17T06:50:43.125Z,10.42
2019-03-17T06:51:20.900Z,10.52
2019-03-17T06:53:58.857Z,10.56
2019-03-17T06:55:01.802Z,10.46
2019-03-17T06:55:57.038Z,10.52
2019-03-17T06:57:15.459Z,10.51
2019-03-17T06:57:56.278Z,10.52
2019-03-17T06:59:01.099Z,10.47
2019-03-17T06:59:58.957Z,10.47
2019-03-17T07:00:57.262Z,10.59
2019-03-17T07:01:58.272Z,10.63
2019-03-17T07:02:56.289Z,10.53
2019-03-17T07:03:58.342Z,10.63
2019-03-17T07:04:56.743Z,10.60
2019-03-17T07:05:59.753Z,10.71
2019-03-17T07:06:55.105Z,10.68
2019-03-17T07:07:57.299Z,10.66
2019-03-17T07:08:56.514Z,10.74
2019-03-17T07:09:59.307Z,10.71
2019-03-17T07:11:22.843Z,10.65
2019-03-17T07:11:58.017Z,10.63
2019-03-17T08:04:46.292Z,12.95
2019-03-17T08:54:19.223Z,13.51
2019-03-17T08:55:12.937Z,13.69
2019-03-17T10:03:36.063Z,11.54
2019-03-17T10:04:14.532Z,11.61
2019-03-17T10:05:27.073Z,11.65
2019-03-17T10:20:48.441Z,11.80
2019-03-17T10:21:10.495Z,11.78
2019-03-17T10:22:08.078Z,11.96
2019-03-17T10:23:10.962Z,12.02
2019-03-17T10:24:11.965Z,12.09
2019-03-17T10:25:10.458Z,12.12
2019-03-17T10:26:15.458Z,12.13
2019-03-17T10:27:16.458Z,12.08
2019-03-17T10:28:10.997Z,12.09
2019-03-17T10:29:12.967Z,12.26
2019-03-17T10:30:13.921Z,12.24
2019-03-17T10:31:11.470Z,12.30
2019-03-17T10:32:12.450Z,12.29
2019-03-17T10:33:11.478Z,12.21
2019-03-17T10:34:10.115Z,12.13
2019-03-17T10:35:11.976Z,12.02
2019-03-17T10:36:10.384Z,11.93
2019-03-17T10:37:12.472Z,11.77
2019-03-17T10:38:12.505Z,11.99
2019-03-17T10:39:21.767Z,12.01
2019-03-17T10:40:43.907Z,12.01
2019-03-17T10:41:11.233Z,12.09
2019-03-17T10:42:14.957Z,12.05
2019-03-17T10:43:15.480Z,11.97
2019-03-17T10:44:12.814Z,12.08
2019-03-17T10:45:14.963Z,11.97
2019-03-17T10:46:13.928Z,11.94
2019-03-17T10:47:13.998Z,11.82
2019-03-17T10:48:12.588Z,11.87
2019-03-17T10:49:21.467Z,11.82
2019-03-17T10:50:15.021Z,11.87
2019-03-17T10:51:13.107Z,11.86
2019-03-17T10:52:14.969Z,11.90
2019-03-17T10:53:16.980Z,11.97
2019-03-17T10:54:15.468Z,12.02
2019-03-17T10:55:13.816Z,11.99
2019-03-17T10:56:14.962Z,12.06
2019-03-17T10:57:17.973Z,12.15
2019-03-17T10:58:15.329Z,12.12
2019-03-17T10:59:22.501Z,12.11
2019-03-17T11:00:18.412Z,12.12
2019-03-17T11:01:16.456Z,12.15
2019-03-17T11:02:16.063Z,12.06
2019-03-17T11:03:17.913Z,12.23
2019-03-17T11:04:16.979Z,12.19
2019-03-17T11:05:16.059Z,12.29
2019-03-17T11:06:19.473Z,12.11
2019-03-17T11:07:16.413Z,12.20
2019-03-17T11:08:38.992Z,12.24
2019-03-17T11:09:25.120Z,12.15
2019-03-17T11:10:22.976Z,12.01
2019-03-17T11:11:24.487Z,11.87
2019-03-17T11:12:16.692Z,11.94
2019-03-17T11:13:23.455Z,11.96
2019-03-17T11:14:22.009Z,11.78
2019-03-17T11:15:18.230Z,11.78
2019-03-17T11:16:18.970Z,11.62
2019-03-17T11:17:17.682Z,11.54
2019-03-17T11:18:43.326Z,11.39
2019-03-17T11:19:20.962Z,11.34
2019-03-17T11:20:21.954Z,11.28
2019-03-17T11:21:24.026Z,11.20
2019-03-17T11:22:18.559Z,10.96
2019-03-17T11:23:18.778Z,10.78
2019-03-17T11:24:18.979Z,10.46
2019-03-17T11:25:20.978Z,10.22
2019-03-17T11:26:19.309Z,10.00
2019-03-17T11:27:19.509Z,9.82
2019-03-17T11:28:23.493Z,9.91
2019-03-17T11:29:21.505Z,9.81
2019-03-17T11:30:22.944Z,9.86
2019-03-17T11:31:20.288Z,9.83
2019-03-17T11:32:22.470Z,9.67
2019-03-17T11:33:22.516Z,9.49
2019-03-17T11:34:20.866Z,9.43
2019-03-17T11:35:24.963Z,9.34
2019-03-17T11:36:22.970Z,9.21
2019-03-17T11:37:23.740Z,9.09
2019-03-17T11:38:22.966Z,9.10
2019-03-17T11:39:21.574Z,8.99
2019-03-17T11:40:21.660Z,8.91
2019-03-17T11:41:25.491Z,8.90
2019-03-17T11:42:37.955Z,8.93
2019-03-17T11:43:38.941Z,8.79
2019-03-17T11:44:23.423Z,8.75
2019-03-17T11:45:45.506Z,8.73
2019-03-17T11:46:22.872Z,8.71
2019-03-17T11:47:26.964Z,8.60
2019-03-17T11:48:24.960Z,8.68
2019-03-17T11:49:24.290Z,8.57
2019-03-17T11:50:23.516Z,8.57
2019-03-17T11:51:31.492Z,8.48
2019-03-17T11:52:24.911Z,8.48
2019-03-17T11:53:25.913Z,8.62
2019-03-17T11:54:25.927Z,8.40
2019-03-17T11:55:53.820Z,8.51
2019-03-17T11:56:25.553Z,8.45
2019-03-17T11:58:01.527Z,8.68
2019-03-17T11:58:27.917Z,8.71
2019-03-17T11:59:26.034Z,8.71
2019-03-17T12:00:32.967Z,8.79
2019-03-17T12:01:26.966Z,8.83
2019-03-17T12:02:26.863Z,8.76
2019-03-17T12:03:31.962Z,8.76
2019-03-17T12:04:33.522Z,8.75
2019-03-17T12:06:02.967Z,8.86
2019-03-17T12:08:03.411Z,8.88
2019-03-17T12:09:00.424Z,8.84
2019-03-17T12:10:20.347Z,8.78
2019-03-17T12:11:22.256Z,8.76
2019-03-17T12:12:03.300Z,8.73
2019-03-17T12:13:21.280Z,8.90
2019-03-17T12:13:58.900Z,8.84
2019-03-17T12:15:22.752Z,8.91
2019-03-17T12:16:02.423Z,9.01
2019-03-17T12:17:03.034Z,9.05
2019-03-17T12:18:16.270Z,9.10
2019-03-17T12:19:11.694Z,9.13
2019-03-17T12:21:34.807Z,8.90
2019-03-17T12:22:34.892Z,8.91
2019-03-17T12:25:19.377Z,8.94
2019-03-17T12:26:21.758Z,8.94
2019-03-17T12:27:12.122Z,9.06
2019-03-17T12:28:06.943Z,9.06
2019-03-17T12:29:04.626Z,9.10
2019-03-17T12:30:27.703Z,9.10
2019-03-17T12:31:07.169Z,9.05
2019-03-17T12:32:15.731Z,9.13
2019-03-17T12:33:10.055Z,8.96
2019-03-17T12:34:06.445Z,8.90
2019-03-17T12:35:13.115Z,8.81
2019-03-17T12:36:09.622Z,8.72
2019-03-17T12:37:29.634Z,8.76
2019-03-17T12:38:07.602Z,8.76
2019-03-17T12:39:08.117Z,8.76
2019-03-17T12:40:09.568Z,8.71
2019-03-17T12:41:14.660Z,8.81
2019-03-17T12:44:05.281Z,8.99
2019-03-17T12:44:55.081Z,9.21
2019-03-17T12:45:41.365Z,9.23
2019-03-17T12:46:40.364Z,9.39
2019-03-17T12:47:40.481Z,9.43
2019-03-17T12:48:51.571Z,9.39
2019-03-17T12:49:43.526Z,9.39
2019-03-17T12:50:55.534Z,9.40
2019-03-17T12:51:44.455Z,9.53
2019-03-17T12:52:51.228Z,9.50
2019-03-17T12:53:42.462Z,9.42
2019-03-17T12:54:44.537Z,9.38
2019-03-17T12:55:48.524Z,9.45
2019-03-17T12:56:43.962Z,9.50
2019-03-17T12:57:46.039Z,9.56
2019-03-17T12:58:42.988Z,9.52
2019-03-17T12:59:53.566Z,9.64
2019-03-17T13:00:44.512Z,9.66
2019-03-17T13:03:18.425Z,9.66
2019-03-17T13:04:14.582Z,9.56
2019-03-17T13:05:42.597Z,9.56
2019-03-17T13:06:17.311Z,9.58
2019-03-17T13:07:20.414Z,9.58
2019-03-17T13:08:22.658Z,9.58
2019-03-17T13:09:16.615Z,9.45
2019-03-17T13:10:30.647Z,9.50
2019-03-17T13:11:17.558Z,9.49
2019-03-17T13:12:19.097Z,9.45
2019-03-17T13:13:16.775Z,9.43
2019-03-17T13:14:18.113Z,9.38
2019-03-17T13:15:21.609Z,9.40
2019-03-17T13:16:15.949Z,9.40
2019-03-17T13:17:17.615Z,9.34
2019-03-17T13:18:18.126Z,9.39
2019-03-17T13:19:18.114Z,9.42
2019-03-17T13:20:29.745Z,9.31
2019-03-17T13:21:20.607Z,9.30
2019-03-17T13:22:18.442Z,9.40
2019-03-17T13:23:21.247Z,9.34
2019-03-17T13:24:42.165Z,9.32
2019-03-17T13:25:19.596Z,9.35
2019-03-17T13:26:17.585Z,9.43
2019-03-17T13:27:25.608Z,9.50
2019-03-17T13:28:24.565Z,9.39
2019-03-17T13:29:20.143Z,9.46
2019-03-17T13:30:19.319Z,9.46
2019-03-17T13:31:20.569Z,9.52
2019-03-17T13:32:21.041Z,9.67
2019-03-17T13:33:22.668Z,9.67
2019-03-17T13:34:22.621Z,9.66
2019-03-17T13:35:23.111Z,9.63
2019-03-17T13:36:23.059Z,9.63
2019-03-17T13:37:22.637Z,9.57
2019-03-17T13:38:24.581Z,9.49
2019-03-17T13:39:22.615Z,9.42
2019-03-17T13:40:29.310Z,9.48
2019-03-17T13:41:23.105Z,9.43
2019-03-17T13:42:20.592Z,9.49
2019-03-17T13:43:21.820Z,9.68
2019-03-17T13:44:21.564Z,9.58
2019-03-17T13:45:21.039Z,9.67
2019-03-17T13:46:22.058Z,9.83
2019-03-17T13:47:28.102Z,9.88
2019-03-17T13:48:23.064Z,9.78
2019-03-17T13:49:22.721Z,9.76
2019-03-17T13:50:23.560Z,9.82
2019-03-17T13:51:23.628Z,9.93
2019-03-17T13:52:38.572Z,9.96
2019-03-17T13:53:45.115Z,10.01
2019-03-17T13:54:26.098Z,10.01
2019-03-17T13:55:23.561Z,9.97
2019-03-17T13:56:22.898Z,10.10
2019-03-17T13:57:24.624Z,9.93
2019-03-17T13:58:26.561Z,9.97
2019-03-17T13:59:24.537Z,10.10
2019-03-17T14:00:24.997Z,10.03
2019-03-17T14:01:26.553Z,10.00
2019-03-17T14:02:39.598Z,10.01
2019-03-17T14:03:24.266Z,10.07
2019-03-17T14:04:28.067Z,9.99
2019-03-17T14:05:27.554Z,10.07
2019-03-17T14:06:32.734Z,9.99
2019-03-17T14:07:36.857Z,9.89
2019-03-17T14:08:29.159Z,9.88
2019-03-17T14:09:26.049Z,10.00
2019-03-17T14:10:40.457Z,9.91
2019-03-17T14:11:27.565Z,10.04
2019-03-17T14:12:27.608Z,10.10
2019-03-17T14:13:26.172Z,10.14
2019-03-17T14:14:29.803Z,10.04
2019-03-17T14:15:28.166Z,10.00
2019-03-17T14:16:50.073Z,9.94
2019-03-17T14:17:30.599Z,10.06
2019-03-17T14:18:28.568Z,9.88
2019-03-17T14:21:04.114Z,9.99
2019-03-17T14:22:02.428Z,10.01
2019-03-17T14:23:01.069Z,9.89
2019-03-17T14:24:00.319Z,9.82
2019-03-17T14:25:01.106Z,9.83
2019-03-17T14:25:59.621Z,9.78
2019-03-17T14:27:07.629Z,9.75
2019-03-17T14:28:01.867Z,9.71
2019-03-17T14:29:03.000Z,9.75
2019-03-17T14:30:23.099Z,9.88
2019-03-17T14:31:00.367Z,9.89
2019-03-17T14:32:04.051Z,9.97
2019-03-17T14:33:03.522Z,10.06
2019-03-17T14:34:16.550Z,9.91
2019-03-17T14:35:03.925Z,9.83
2019-03-17T14:36:05.049Z,9.79
2019-03-17T14:37:05.597Z,9.78
2019-03-17T14:38:06.538Z,9.91
2019-03-17T14:39:03.544Z,9.89
2019-03-17T14:40:02.753Z,9.91
2019-03-17T14:41:05.590Z,10.01
2019-03-17T14:42:23.249Z,10.01
2019-03-17T14:43:05.033Z,10.00
2019-03-17T14:44:02.508Z,9.97
2019-03-17T14:45:09.608Z,9.86
2019-03-17T14:46:35.483Z,9.93
2019-03-17T14:47:04.602Z,9.94
2019-03-17T14:48:06.006Z,9.96
2019-03-17T14:49:15.087Z,9.88
2019-03-17T14:50:04.507Z,9.79
2019-03-17T14:51:27.559Z,9.91
2019-03-17T14:52:25.974Z,9.89
2019-03-17T14:54:40.182Z,9.79
2019-03-17T14:55:38.816Z,9.82
2019-03-17T14:56:47.464Z,9.81
2019-03-17T14:57:41.340Z,9.88
2019-03-17T14:58:36.812Z,9.86
2019-03-17T14:59:36.895Z,9.76
2019-03-17T15:00:39.835Z,9.76
2019-03-17T15:01:38.735Z,9.82
2019-03-17T15:02:40.841Z,9.88
2019-03-17T15:03:39.651Z,9.97
2019-03-17T15:04:41.125Z,10.01
2019-03-17T15:05:43.314Z,10.09
2019-03-17T15:06:40.252Z,10.26
2019-03-17T15:07:39.157Z,10.40
2019-03-17T15:08:39.819Z,10.47
2019-03-17T15:10:02.336Z,10.44
2019-03-17T15:10:41.349Z,10.59
2019-03-17T15:11:38.690Z,10.56
2019-03-17T15:12:42.895Z,10.55
2019-03-17T15:13:40.123Z,10.71
2019-03-17T15:14:47.308Z,10.55
2019-03-17T15:15:39.540Z,10.51
2019-03-17T15:16:39.666Z,10.40
2019-03-17T15:17:41.347Z,10.39
2019-03-17T15:18:55.825Z,10.55
2019-03-17T15:19:41.798Z,10.51
2019-03-17T15:20:42.861Z,10.60
2019-03-17T15:21:56.304Z,10.84
2019-03-17T15:22:44.327Z,10.88
2019-03-17T15:23:42.406Z,11.01
2019-03-17T15:24:41.021Z,11.10
2019-03-17T15:25:42.205Z,11.25
2019-03-17T15:26:43.355Z,11.21
2019-03-17T15:27:45.304Z,11.17
2019-03-17T15:28:47.413Z,11.19
2019-03-17T15:29:45.839Z,11.10
2019-03-17T15:30:57.010Z,11.10
2019-03-17T15:31:48.811Z,11.01
2019-03-17T15:32:44.375Z,10.98
2019-03-17T15:33:44.062Z,11.01
2019-03-17T15:34:42.815Z,10.84
2019-03-17T15:35:46.815Z,10.88
2019-03-17T15:37:05.155Z,10.66
2019-03-17T15:37:46.806Z,10.66
2019-03-17T15:38:45.891Z,10.71
2019-03-17T15:39:44.613Z,10.71
2019-03-17T15:40:44.735Z,10.71
2019-03-17T15:41:45.262Z,10.77
2019-03-17T15:42:48.387Z,10.70
2019-03-17T15:43:45.805Z,10.65
2019-03-17T15:44:47.135Z,10.55
2019-03-17T15:45:46.311Z,10.47
2019-03-17T15:46:47.302Z,10.32
2019-03-17T15:47:51.258Z,10.33
2019-03-17T15:48:51.852Z,10.37
2019-03-17T15:49:45.101Z,10.24
2019-03-17T15:50:45.197Z,10.22
2019-03-17T15:51:48.259Z,10.26
2019-03-17T15:52:47.314Z,10.28
2019-03-17T15:53:47.319Z,10.32
2019-03-17T15:54:45.802Z,10.24
2019-03-17T15:55:46.007Z,10.17
2019-03-17T15:56:49.805Z,10.18
2019-03-17T15:57:46.388Z,10.06
2019-03-17T15:58:51.760Z,10.09
2019-03-17T15:59:49.203Z,10.15
2019-03-17T16:00:49.806Z,9.86
2019-03-17T16:02:09.184Z,9.50
2019-03-17T16:02:47.753Z,9.38
2019-03-17T16:03:51.298Z,9.06
2019-03-17T16:04:51.313Z,8.91
2019-03-17T16:07:24.055Z,8.68
2019-03-17T16:08:23.971Z,8.54
2019-03-17T16:09:22.107Z,8.51
2019-03-17T16:10:25.868Z,8.40
2019-03-17T16:11:30.998Z,8.45
2019-03-17T16:12:21.443Z,8.40
2019-03-17T16:13:21.872Z,8.36
2019-03-17T16:14:22.938Z,8.39
2019-03-17T16:15:43.858Z,8.45
2019-03-17T16:16:36.925Z,8.47
2019-03-17T16:17:21.830Z,8.60
2019-03-17T16:20:33.647Z,8.40
2019-03-17T16:20:58.458Z,8.33
2019-03-17T16:21:59.841Z,8.36
2019-03-17T16:22:57.318Z,8.44
2019-03-17T16:24:04.336Z,8.69
2019-03-17T16:25:08.239Z,8.78
2019-03-17T16:27:49.475Z,9.09
2019-03-17T16:28:52.353Z,9.32
2019-03-17T16:33:14.074Z,9.83
2019-03-17T16:33:54.758Z,10.10
2019-03-17T16:34:47.679Z,10.09
2019-03-17T16:35:57.479Z,10.21
2019-03-17T16:36:41.456Z,10.34
2019-03-17T16:37:47.263Z,10.26
2019-03-17T16:38:33.626Z,10.19
2019-03-17T16:39:35.712Z,10.17
2019-03-17T16:40:55.682Z,10.15
2019-03-17T16:41:42.820Z,10.15
2019-03-17T16:42:35.241Z,10.12
2019-03-17T16:43:38.222Z,9.99
2019-03-17T16:44:56.645Z,9.70
